AirNav   Everest Fuels
 
 983 users online  

SC65 Raven's Run Airport
Mount Pleasant, South Carolina, USA

GOING TO MOUNT PLEASANT?


FAA INFORMATION EFFECTIVE 22 APRIL 2021

Location

FAA Identifier: SC65
Lat/Long: 32-49-25.6310N 079-48-24.2960W
32-49.427183N 079-48.404933W
32.8237864,-79.8067489
(estimated)
Elevation: 8 ft. / 2 m (estimated)
Variation: 05W (1985)
From city: 4 miles NE of MOUNT PLEASANT, SC
Time zone: UTC -4 (UTC -5 during Standard Time)
Zip code: 29464

Airport Operations

Airport use: Private use. Permission required prior to landing
Activation date: 08/1985
Control tower: no
ARTCC: JACKSONVILLE CENTER
FSS: ANDERSON FLIGHT SERVICE STATION
Attendance: UNATNDD
Wind indicator: yes
Segmented circle: no

Airport Communications

WX AWOS-3 at LRO (5 nm N): 118.625 (843-849-0438)
WX AWOS-3 at JZI (12 nm SW): 123.775 (843-559-3123)
WX ASOS at CHS (13 nm W): 124.75 (843-554-9862)

Nearby radio navigation aids

VOR radial/distance  VOR name  Freq  Var
CHSr115/12.4CHARLESTON VORTAC113.5005W

 
NDB name  Hdg/Dist  Freq  Var  ID
DORCHESTER COUNTY128/27.636507WDYB -.. -.-- -...

Airport Services

Runway Information

Runway 15/33

Dimensions: 2400 x 100 ft. / 732 x 30 m
Surface: turf
RUNWAY 15  RUNWAY 33
Traffic pattern: leftleft

Airport Ownership and Management from official FAA records

Ownership: Privately-owned
Owner: RAVEN'S RUN HOA
1414B OMNI BLVD.
MOUNT PLEASANT, SC 29464
Phone (843) 747-7800
Manager: CECIL H. MC LEOD
1535 OMNI BLVD
MOUNT PLEASANT, SC 29466
Phone (843) 881-0702

Airport Operational Statistics

Aircraft based on the field: 2
Single engine airplanes: 2
    

Additional Remarks

FOR CD CTC CHARLESTON APCH AT 843-414-2832.

Instrument Procedures

There are no published instrument procedures at SC65.

Some nearby airports with instrument procedures:

KLRO - Mount Pleasant Regional Airport-Faison Field (5 nm N)
KJZI - Charleston Executive Airport (12 nm SW)
KCHS - Charleston Air Force Base/International Airport (13 nm W)
KMKS - Berkeley County Airport (25 nm NW)
KDYB - Summerville Airport (28 nm NW)
 
Loc | Ops | Rwys | IFR | FBO | Links
Com | Nav | Svcs | Stats | Notes
Area around SC65 (Raven's Run Airport)
 
Road maps at: MapQuest Bing Google
 
Aerial photo
No photo
 
Sectional chart

 
Airport distance calculator
Flying to Raven's Run Airport? Find the distance to fly.

From to SC65

Sunrise and sunset
Times for 12-May-2021
 Local
(UTC-4)
 Zulu
(UTC)
Morning civil twilight05:5609:56
Sunrise06:2310:23
Sunset20:0800:08
Evening civil twilight20:3500:35

Current date and time
Zulu (UTC)  13-May-2021 02:23:27
Local (UTC-4)  12-May-2021 22:23:27
 
METAR
KLRO 
5nm N 
130155Z AUTO 35009G15KT 10SM OVC012 10/10 A3021 RMK AO2
KCHS 
12nm W 
130156Z 02012KT 10SM -RA OVC015 10/08 A3022 RMK AO2 RAB53 SLP234 P0000 T01000083
KJZI 
12nm SW 
130155Z AUTO 35014G19KT 10SM OVC011 11/10 A3021 RMK AO2
TAF
KCHS 
12nm W 
122122Z 1221/1318 03011G19KT P6SM -RA OVC008 FM130200 04011KT P6SM OVC007 FM130600 02010KT P6SM SCT007 BKN015 FM131300 03013KT P6SM SCT020 BKN040
NOTAMs
Click for the latest NOTAMs
NOTAMs are issued by the DoD/FAA and will open in a separate window not controlled by AirNav.

 

 
 

Would you like to see your business listed on this page?

 If your business provides an interesting product or service to pilots, flight crews, aircraft, or users of the Raven's Run Airport, you should consider listing it here.  To start the listing process, click on the button below
 
Add a business
 

Other Pages about Raven's Run Airport

Update a link
 
Copyright © AirNav, LLC. All rights reserved. Privacy Policy  Contact